createdAt,value
2023-12-11T00:01:34.160Z,4.91
2023-12-11T00:04:00.836Z,4.94
2023-12-11T00:06:27.557Z,4.99
2023-12-11T00:08:54.270Z,5.02
2023-12-11T00:11:22.213Z,5.05
2023-12-11T00:13:49.143Z,5.07
2023-12-11T00:16:17.771Z,5.05
2023-12-11T00:18:44.738Z,5.04
2023-12-11T00:21:11.904Z,5.03
2023-12-11T00:23:38.699Z,5.04
2023-12-11T00:26:06.048Z,5.05
2023-12-11T00:28:32.659Z,5.04
2023-12-11T00:31:00.157Z,5.03
2023-12-11T00:33:26.850Z,5.01
2023-12-11T00:35:53.662Z,4.99
2023-12-11T00:38:20.356Z,4.99
2023-12-11T00:40:47.239Z,5.03
2023-12-11T00:43:13.991Z,5.06
2023-12-11T00:45:40.616Z,5.06
2023-12-11T00:48:07.315Z,5.06
2023-12-11T00:50:34.502Z,5.12
2023-12-11T00:53:01.053Z,5.15
2023-12-11T00:55:27.981Z,5.14
2023-12-11T00:57:54.576Z,5.10
2023-12-11T01:00:22.249Z,5.08
2023-12-11T01:02:48.951Z,5.04
2023-12-11T01:05:15.684Z,4.98
2023-12-11T01:07:42.350Z,4.97
2023-12-11T01:12:48.032Z,4.92
2023-12-11T01:15:14.601Z,4.89
2023-12-11T01:17:41.506Z,4.86
2023-12-11T01:20:12.258Z,4.80
2023-12-11T01:22:38.964Z,4.84
2023-12-11T01:25:09.607Z,4.86
2023-12-11T01:27:36.658Z,4.87
2023-12-11T01:30:03.742Z,4.88
2023-12-11T01:32:30.537Z,4.92
2023-12-11T01:34:57.611Z,5.01
2023-12-11T01:37:24.176Z,5.00
2023-12-11T01:39:50.742Z,4.93
2023-12-11T01:42:17.659Z,4.90
2023-12-11T01:44:44.223Z,4.85
2023-12-11T01:47:11.169Z,4.80
2023-12-11T01:49:38.821Z,4.76
2023-12-11T01:52:07.999Z,4.74
2023-12-11T01:54:37.610Z,4.76
2023-12-11T01:57:04.661Z,4.77
2023-12-11T01:59:31.311Z,4.76
2023-12-11T02:01:58.141Z,4.80
2023-12-11T02:04:25.047Z,4.80
2023-12-11T02:06:51.842Z,4.79
2023-12-11T02:09:18.543Z,4.76
2023-12-11T02:11:47.096Z,4.72
2023-12-11T02:14:14.344Z,4.68
2023-12-11T02:16:42.278Z,4.68
2023-12-11T02:19:09.204Z,4.65
2023-12-11T02:21:36.456Z,4.64
2023-12-11T02:24:18.889Z,4.67
2023-12-11T02:26:45.533Z,4.73
2023-12-11T02:29:12.248Z,4.72
2023-12-11T02:31:41.983Z,4.72
2023-12-11T02:34:09.858Z,4.73
2023-12-11T02:36:36.802Z,4.75
2023-12-11T02:39:03.924Z,4.69
2023-12-11T02:41:30.557Z,4.66
2023-12-11T02:43:58.888Z,4.63
2023-12-11T02:46:25.737Z,4.63
2023-12-11T02:48:52.568Z,4.59
2023-12-11T02:51:19.329Z,4.57
2023-12-11T02:53:46.294Z,4.56
2023-12-11T02:56:12.920Z,4.61
2023-12-11T02:58:39.587Z,4.67
2023-12-11T03:01:06.356Z,4.71
2023-12-11T03:03:33.181Z,4.74
2023-12-11T03:06:00.890Z,4.78
2023-12-11T03:08:27.486Z,4.78
2023-12-11T03:10:54.094Z,4.78
2023-12-11T03:13:20.736Z,4.77
2023-12-11T03:15:47.276Z,4.76
2023-12-11T03:18:13.950Z,4.73
2023-12-11T03:20:40.560Z,4.71
2023-12-11T03:23:07.059Z,4.67
2023-12-11T03:25:33.563Z,4.63
2023-12-11T03:28:00.353Z,4.67
2023-12-11T03:30:26.994Z,4.67
2023-12-11T03:32:53.623Z,4.65
2023-12-11T03:35:20.340Z,4.63
2023-12-11T03:37:49.162Z,4.64
2023-12-11T03:40:15.866Z,4.67
2023-12-11T03:42:43.435Z,4.65
2023-12-11T03:45:11.358Z,4.64
2023-12-11T03:47:38.095Z,4.62
2023-12-11T03:50:05.264Z,4.58
2023-12-11T03:52:31.871Z,4.56
2023-12-11T03:54:58.598Z,4.53
2023-12-11T03:57:25.205Z,4.52
2023-12-11T03:59:51.818Z,4.50
2023-12-11T04:02:18.552Z,4.49
2023-12-11T04:04:45.286Z,4.55
2023-12-11T04:07:12.159Z,4.60
2023-12-11T04:09:38.961Z,4.64
2023-12-11T04:12:05.552Z,4.71
2023-12-11T04:14:32.209Z,4.79
2023-12-11T04:16:58.833Z,4.90
2023-12-11T04:19:25.821Z,5.01
2023-12-11T04:21:52.520Z,5.14
2023-12-11T04:24:19.131Z,5.23
2023-12-11T04:26:47.644Z,5.27
2023-12-11T04:29:14.311Z,5.31
2023-12-11T04:31:40.919Z,5.33
2023-12-11T04:34:07.758Z,5.35
2023-12-11T04:36:34.380Z,5.36
2023-12-11T04:39:00.929Z,5.37
2023-12-11T04:41:27.696Z,5.48
2023-12-11T04:43:54.198Z,5.53
2023-12-11T04:46:20.841Z,5.60
2023-12-11T04:48:47.638Z,5.67
2023-12-11T04:51:14.396Z,5.65
2023-12-11T04:53:41.008Z,5.68
2023-12-11T04:56:08.482Z,5.67
2023-12-11T04:58:35.129Z,5.68
2023-12-11T05:01:01.843Z,5.73
2023-12-11T05:03:28.607Z,5.76
2023-12-11T05:05:55.289Z,5.77
2023-12-11T05:08:21.822Z,5.81
2023-12-11T05:10:48.344Z,5.90
2023-12-11T05:13:14.949Z,5.95
2023-12-11T05:15:41.801Z,5.95
2023-12-11T05:18:08.512Z,5.98
2023-12-11T05:20:35.085Z,5.95
2023-12-11T05:23:01.607Z,5.95
2023-12-11T05:25:28.129Z,5.95
2023-12-11T05:27:54.755Z,5.95
2023-12-11T05:30:23.523Z,5.96
2023-12-11T05:32:51.185Z,5.94
2023-12-11T05:35:18.010Z,5.92
2023-12-11T05:37:44.663Z,5.90
2023-12-11T05:40:21.974Z,5.90
2023-12-11T05:42:51.564Z,5.97
2023-12-11T05:45:18.387Z,6.01
2023-12-11T05:47:44.893Z,6.01
2023-12-11T05:50:12.565Z,6.05
2023-12-11T05:52:39.404Z,6.09
2023-12-11T05:55:06.117Z,6.10
2023-12-11T05:57:33.205Z,6.12
2023-12-11T05:59:59.791Z,6.13
2023-12-11T06:02:26.489Z,6.15
2023-12-11T06:04:53.232Z,6.16
2023-12-11T06:07:20.205Z,6.16
2023-12-11T06:09:46.757Z,6.17
2023-12-11T06:12:13.582Z,6.17
2023-12-11T06:14:41.000Z,6.15
2023-12-11T06:17:07.745Z,6.14
2023-12-11T06:19:34.743Z,6.18
2023-12-11T06:22:01.384Z,6.22
2023-12-11T06:24:28.937Z,6.22
2023-12-11T06:26:55.686Z,6.23
2023-12-11T06:29:22.356Z,6.23
2023-12-11T06:31:48.962Z,6.21
2023-12-11T06:34:15.781Z,6.16
2023-12-11T06:36:42.990Z,6.11
2023-12-11T06:39:10.192Z,6.08
2023-12-11T06:41:37.019Z,6.01
2023-12-11T06:44:04.072Z,5.98
2023-12-11T06:46:31.233Z,5.93
2023-12-11T06:48:58.649Z,5.91
2023-12-11T06:51:25.600Z,5.86
2023-12-11T06:53:58.851Z,5.91
2023-12-11T06:56:31.373Z,5.93
2023-12-11T06:58:58.567Z,5.94
2023-12-11T07:01:29.858Z,5.99
2023-12-11T07:03:57.154Z,6.01
2023-12-11T07:06:24.677Z,5.97
2023-12-11T07:08:51.390Z,5.97
2023-12-11T07:11:18.418Z,5.95
2023-12-11T07:13:45.550Z,5.92
2023-12-11T07:16:12.501Z,5.90
2023-12-11T07:18:39.886Z,5.87
2023-12-11T07:21:12.144Z,5.84
2023-12-11T07:23:39.528Z,5.85
2023-12-11T07:26:09.164Z,5.84
2023-12-11T07:28:41.138Z,5.85
2023-12-11T07:31:07.794Z,5.96
2023-12-11T07:33:34.597Z,6.03
2023-12-11T07:36:05.179Z,6.12
2023-12-11T07:38:31.997Z,6.21
2023-12-11T07:40:59.076Z,6.26
2023-12-11T07:43:26.136Z,6.29
2023-12-11T07:45:55.900Z,6.33
2023-12-11T07:48:22.575Z,6.38
2023-12-11T07:50:49.240Z,6.44
2023-12-11T07:53:15.995Z,6.49
2023-12-11T07:55:42.757Z,6.52
2023-12-11T07:58:11.132Z,6.57
2023-12-11T08:00:37.881Z,6.61
2023-12-11T08:03:06.576Z,6.68
2023-12-11T08:05:33.276Z,6.79
2023-12-11T08:07:59.990Z,6.90
2023-12-11T08:10:26.803Z,6.98
2023-12-11T08:12:53.681Z,7.05
2023-12-11T08:15:20.644Z,7.08
2023-12-11T08:17:47.256Z,7.11
2023-12-11T08:20:17.326Z,7.12
2023-12-11T08:22:44.363Z,7.13
2023-12-11T08:25:11.849Z,7.10
2023-12-11T08:27:38.501Z,7.10
2023-12-11T08:30:05.628Z,7.12
2023-12-11T08:32:32.221Z,7.10
2023-12-11T08:35:04.150Z,7.11
2023-12-11T08:37:31.081Z,7.13
2023-12-11T08:39:57.802Z,7.22
2023-12-11T08:42:24.402Z,7.27
2023-12-11T08:44:50.979Z,7.34
2023-12-11T08:47:17.688Z,7.38
2023-12-11T08:49:44.507Z,7.38
2023-12-11T08:52:11.282Z,7.41
2023-12-11T08:54:37.996Z,7.46
2023-12-11T08:57:04.826Z,7.49
2023-12-11T08:59:32.852Z,7.52
2023-12-11T09:01:59.633Z,7.54
2023-12-11T09:04:26.396Z,7.57
2023-12-11T09:06:55.228Z,7.59
2023-12-11T09:09:21.867Z,7.66
2023-12-11T09:11:49.411Z,7.73
2023-12-11T09:14:16.199Z,7.81
2023-12-11T09:16:42.777Z,7.87
2023-12-11T09:19:09.423Z,7.92
2023-12-11T09:21:36.829Z,7.94
2023-12-11T09:24:04.527Z,7.96
2023-12-11T09:26:31.063Z,7.99
2023-12-11T09:28:58.239Z,8.01
2023-12-11T09:31:25.047Z,8.03
2023-12-11T09:33:51.987Z,8.03
2023-12-11T09:36:19.590Z,8.03
2023-12-11T09:38:46.208Z,8.06
2023-12-11T09:41:12.883Z,8.08
2023-12-11T09:43:40.087Z,8.11
2023-12-11T09:46:08.824Z,8.17
2023-12-11T09:48:35.720Z,8.29
2023-12-11T09:51:03.332Z,8.38
2023-12-11T09:53:32.933Z,8.49
2023-12-11T09:56:00.194Z,8.53
2023-12-11T09:58:27.107Z,8.57
2023-12-11T10:00:53.800Z,8.60
2023-12-11T10:03:20.594Z,8.64
2023-12-11T10:05:48.369Z,8.63
2023-12-11T10:08:16.678Z,8.57
2023-12-11T10:10:43.310Z,8.50
2023-12-11T10:13:23.270Z,8.48
2023-12-11T10:15:50.673Z,8.43
2023-12-11T10:18:17.485Z,8.37
2023-12-11T10:20:54.485Z,8.32
2023-12-11T10:23:22.535Z,8.31
2023-12-11T10:25:51.341Z,8.39
2023-12-11T10:28:21.392Z,8.43
2023-12-11T10:30:52.761Z,8.48
2023-12-11T10:33:20.463Z,8.56
2023-12-11T10:35:48.029Z,8.54
2023-12-11T10:38:25.713Z,8.56
2023-12-11T10:40:53.943Z,8.53
2023-12-11T10:43:20.737Z,8.56
2023-12-11T10:45:51.224Z,8.59
2023-12-11T10:48:23.304Z,8.64
2023-12-11T10:50:50.781Z,8.70
2023-12-11T10:53:17.850Z,8.81
2023-12-11T10:55:47.863Z,8.93
2023-12-11T10:58:15.255Z,9.06
2023-12-11T11:00:44.635Z,9.22
2023-12-11T11:03:13.223Z,9.37
2023-12-11T11:05:41.752Z,9.51
2023-12-11T11:08:16.397Z,9.61
2023-12-11T11:11:15.257Z,9.70
2023-12-11T11:14:09.247Z,9.75
2023-12-11T11:16:55.086Z,9.75
2023-12-11T11:19:21.979Z,9.75
2023-12-11T11:22:09.821Z,9.73
2023-12-11T11:24:36.786Z,9.81
2023-12-11T11:27:05.264Z,9.87
2023-12-11T11:29:42.922Z,9.93
2023-12-11T11:32:11.301Z,10.01
2023-12-11T11:34:41.097Z,10.01
2023-12-11T11:37:10.435Z,9.98
2023-12-11T11:40:04.477Z,10.02
2023-12-11T11:42:36.074Z,10.08
2023-12-11T11:45:05.943Z,10.08
2023-12-11T11:47:33.208Z,10.11
2023-12-11T11:50:07.607Z,10.12
2023-12-11T11:52:36.276Z,10.09
2023-12-11T11:55:27.393Z,10.06
2023-12-11T11:57:54.860Z,10.04
2023-12-11T12:00:23.456Z,10.04
2023-12-11T12:03:07.432Z,10.07
2023-12-11T12:05:35.289Z,10.21
2023-12-11T12:08:05.681Z,10.26
2023-12-11T12:10:32.371Z,10.32
2023-12-11T12:13:00.649Z,10.27
2023-12-11T12:15:28.560Z,10.19
2023-12-11T12:18:07.253Z,10.17
2023-12-11T12:20:34.030Z,10.10
2023-12-11T12:23:06.203Z,10.10
2023-12-11T12:25:34.378Z,10.09
2023-12-11T16:15:34.950Z,8.29
2023-12-11T16:18:02.994Z,8.41
2023-12-11T16:20:30.949Z,8.43
2023-12-11T16:22:58.988Z,8.45
2023-12-11T16:25:27.165Z,8.44
2023-12-11T16:27:55.271Z,8.45
2023-12-11T16:30:23.318Z,8.45
2023-12-11T16:32:51.388Z,8.46
2023-12-11T16:35:19.340Z,8.45
2023-12-11T16:37:47.296Z,8.42
2023-12-11T16:40:15.824Z,8.43
2023-12-11T16:42:45.405Z,8.39
2023-12-11T16:45:14.602Z,8.36
2023-12-11T16:47:51.003Z,8.39
2023-12-11T16:50:19.042Z,8.43
2023-12-11T16:52:47.080Z,8.45
2023-12-11T16:55:16.191Z,8.43
2023-12-11T16:57:44.893Z,8.45
2023-12-11T17:00:13.812Z,8.37
2023-12-11T17:02:41.796Z,8.28
2023-12-11T17:05:10.030Z,8.24
2023-12-11T17:07:38.371Z,8.16
2023-12-11T17:10:07.172Z,8.06
2023-12-11T17:12:35.143Z,8.02
2023-12-11T17:15:03.892Z,7.98
2023-12-11T17:17:32.384Z,7.98
2023-12-11T17:20:00.458Z,7.95
2023-12-11T17:22:28.530Z,7.91
2023-12-11T17:24:56.784Z,7.92
2023-12-11T17:27:24.909Z,7.88
2023-12-11T17:29:52.902Z,7.89
2023-12-11T17:32:21.120Z,7.91
2023-12-11T17:34:49.400Z,7.89
2023-12-11T17:37:17.868Z,7.85
2023-12-11T17:39:45.813Z,7.82
2023-12-11T17:42:14.239Z,7.76
2023-12-11T17:44:42.223Z,7.73
2023-12-11T17:47:10.777Z,7.66
2023-12-11T17:49:41.317Z,7.61
2023-12-11T17:52:12.001Z,7.57
2023-12-11T17:54:40.241Z,7.61
2023-12-11T17:57:08.294Z,7.61
2023-12-11T17:59:36.187Z,7.59
2023-12-11T18:02:05.750Z,7.59
2023-12-11T18:04:34.048Z,7.58
2023-12-11T18:07:02.861Z,7.60
2023-12-11T18:09:31.329Z,7.63
2023-12-11T18:12:00.584Z,7.62
2023-12-11T18:14:28.708Z,7.61
2023-12-11T18:16:57.142Z,7.59
2023-12-11T18:19:25.477Z,7.58
2023-12-11T18:21:53.642Z,7.58
2023-12-11T18:24:21.587Z,7.56
2023-12-11T18:26:50.452Z,7.57
2023-12-11T18:29:19.159Z,7.63
2023-12-11T18:31:47.585Z,7.62
2023-12-11T18:36:45.294Z,7.73
2023-12-11T18:39:14.795Z,7.73
2023-12-11T18:41:43.375Z,7.74
2023-12-11T18:44:11.452Z,7.75
2023-12-11T18:46:39.652Z,7.76
2023-12-11T18:49:07.776Z,7.78
2023-12-11T18:51:36.146Z,7.77
2023-12-11T18:54:04.243Z,7.78
2023-12-11T18:56:32.212Z,7.78
2023-12-11T18:59:00.203Z,7.83
2023-12-11T19:01:28.239Z,7.89
2023-12-11T19:03:56.547Z,7.95
2023-12-11T19:06:24.635Z,7.99
2023-12-11T19:08:52.615Z,8.03
2023-12-11T19:11:20.642Z,8.11
2023-12-11T19:13:48.642Z,8.14
2023-12-11T19:16:16.669Z,8.14
2023-12-11T19:18:44.792Z,8.16
2023-12-11T19:21:15.001Z,8.13
2023-12-11T19:23:43.130Z,8.10
2023-12-11T19:26:12.962Z,8.06
2023-12-11T19:28:40.925Z,7.99
2023-12-11T19:31:08.977Z,8.01
2023-12-11T19:33:36.914Z,8.03
2023-12-11T19:36:05.401Z,8.06
2023-12-11T19:38:33.404Z,8.06
2023-12-11T19:41:01.380Z,8.07
2023-12-11T19:43:29.391Z,8.08
2023-12-11T19:45:57.413Z,8.09
2023-12-11T19:48:25.564Z,8.06
2023-12-11T19:50:53.626Z,8.07
2023-12-11T19:53:21.694Z,8.06
2023-12-11T19:55:49.930Z,8.01
2023-12-11T19:58:19.912Z,7.97
2023-12-11T20:00:49.166Z,7.97
2023-12-11T20:03:17.193Z,7.94
2023-12-11T20:05:45.241Z,8.02
2023-12-11T20:08:13.329Z,8.05
2023-12-11T20:10:41.369Z,8.09
2023-12-11T20:13:09.289Z,8.12
2023-12-11T20:15:38.522Z,8.13
2023-12-11T20:18:07.738Z,8.09
2023-12-11T20:20:35.712Z,8.09
2023-12-11T20:23:03.920Z,8.08
2023-12-11T20:25:31.836Z,8.03
2023-12-11T20:27:59.852Z,8.01
2023-12-11T20:30:27.951Z,7.98
2023-12-11T20:32:55.978Z,8.04
2023-12-11T20:35:24.122Z,8.03
2023-12-11T20:37:52.732Z,8.04
2023-12-11T20:40:20.712Z,8.03
2023-12-11T20:42:48.592Z,8.02
2023-12-11T20:45:18.193Z,7.99
2023-12-11T20:47:49.579Z,7.94
2023-12-11T20:50:17.620Z,7.91
2023-12-11T20:52:45.697Z,7.89
2023-12-11T20:55:13.746Z,7.86
2023-12-11T20:57:41.684Z,7.85
2023-12-11T21:00:11.564Z,7.88
2023-12-11T21:02:39.944Z,7.89
2023-12-11T21:05:08.280Z,7.87
2023-12-11T21:07:36.272Z,7.87
2023-12-11T21:10:04.808Z,7.86
2023-12-11T21:12:32.816Z,7.87
2023-12-11T21:15:01.086Z,7.82
2023-12-11T21:17:29.261Z,7.78
2023-12-11T21:19:57.424Z,7.74
2023-12-11T21:22:25.466Z,7.72
2023-12-11T21:24:53.448Z,7.70
2023-12-11T21:27:21.418Z,7.77
2023-12-11T21:29:49.454Z,7.82
2023-12-11T21:32:17.468Z,7.86
2023-12-11T21:34:45.739Z,7.90
2023-12-11T21:37:14.225Z,7.93
2023-12-11T21:39:42.384Z,7.88
2023-12-11T21:42:10.307Z,7.83
2023-12-11T21:44:38.203Z,7.80
2023-12-11T21:47:06.773Z,7.76
2023-12-11T21:49:34.765Z,7.75
2023-12-11T21:52:04.186Z,7.78
2023-12-11T21:54:32.093Z,7.77
2023-12-11T21:56:59.951Z,7.76
2023-12-11T21:59:35.692Z,7.74
2023-12-11T22:02:10.681Z,7.73
2023-12-11T22:04:38.724Z,7.67
2023-12-11T22:07:06.769Z,7.64
2023-12-11T22:09:34.803Z,7.65
2023-12-11T22:12:02.763Z,7.67
2023-12-11T22:14:30.808Z,7.74
2023-12-11T22:16:58.793Z,7.78
2023-12-11T22:19:27.357Z,7.82
2023-12-11T22:21:55.725Z,7.85
2023-12-11T22:24:23.684Z,7.87
2023-12-11T22:26:52.842Z,7.88
2023-12-11T22:29:20.908Z,7.89
2023-12-11T22:31:49.463Z,7.88
2023-12-11T22:34:17.587Z,7.94
2023-12-11T22:36:45.671Z,8.00
2023-12-11T22:39:13.671Z,8.00
2023-12-11T22:41:41.611Z,8.03
2023-12-11T22:44:11.095Z,8.04
2023-12-11T22:46:39.070Z,8.04
2023-12-11T22:49:07.265Z,8.05
2023-12-11T22:51:35.184Z,8.04
2023-12-11T22:54:03.086Z,8.02
2023-12-11T22:56:31.017Z,8.06
2023-12-11T22:58:59.020Z,8.11
2023-12-11T23:01:32.766Z,8.14
2023-12-11T23:04:00.824Z,8.18
2023-12-11T23:06:28.955Z,8.17
2023-12-11T23:08:56.870Z,8.14
2023-12-11T23:11:24.828Z,8.12
2023-12-11T23:13:52.923Z,8.09
2023-12-11T23:16:27.369Z,8.07
2023-12-11T23:19:00.208Z,8.04
2023-12-11T23:21:33.010Z,8.06
2023-12-11T23:24:01.413Z,8.07
2023-12-11T23:26:29.373Z,8.04
2023-12-11T23:28:57.380Z,8.04
2023-12-11T23:31:25.335Z,8.00
2023-12-11T23:33:53.957Z,7.96
2023-12-11T23:36:22.026Z,7.89
2023-12-11T23:38:50.155Z,7.85
2023-12-11T23:41:18.112Z,7.80
2023-12-11T23:43:46.021Z,7.78
2023-12-11T23:46:14.034Z,7.75
2023-12-11T23:48:42.263Z,7.73
2023-12-11T23:51:10.383Z,7.78
2023-12-11T23:53:38.330Z,7.83
2023-12-11T23:56:06.771Z,7.82
2023-12-11T23:58:35.127Z,7.84
